sensor_id;sensor_type;location;lat;lon;timestamp;P1;durP1;ratioP1;P2;durP2;ratioP2
20207;SDS011;10263;48.716;8.760;2023-06-22T00:00:51;8.07;;;6.55;;
20207;SDS011;10263;48.716;8.760;2023-06-22T00:03:19;6.95;;;6.25;;
20207;SDS011;10263;48.716;8.760;2023-06-22T00:05:49;6.88;;;6.28;;
20207;SDS011;10263;48.716;8.760;2023-06-22T00:08:17;8.48;;;6.32;;
20207;SDS011;10263;48.716;8.760;2023-06-22T00:10:44;7.22;;;6.32;;
20207;SDS011;10263;48.716;8.760;2023-06-22T00:13:13;7.28;;;6.53;;
20207;SDS011;10263;48.716;8.760;2023-06-22T00:15:42;8.55;;;7.38;;
20207;SDS011;10263;48.716;8.760;2023-06-22T00:18:09;6.70;;;5.90;;
20207;SDS011;10263;48.716;8.760;2023-06-22T00:20:38;6.93;;;6.20;;
20207;SDS011;10263;48.716;8.760;2023-06-22T00:23:06;6.80;;;6.10;;
20207;SDS011;10263;48.716;8.760;2023-06-22T00:25:33;7.00;;;6.25;;
20207;SDS011;10263;48.716;8.760;2023-06-22T00:28:01;7.10;;;6.00;;
20207;SDS011;10263;48.716;8.760;2023-06-22T00:30:27;8.98;;;6.05;;
20207;SDS011;10263;48.716;8.760;2023-06-22T00:32:58;7.43;;;6.72;;
20207;SDS011;10263;48.716;8.760;2023-06-22T00:35:25;7.65;;;6.95;;
20207;SDS011;10263;48.716;8.760;2023-06-22T00:37:55;7.38;;;6.50;;
20207;SDS011;10263;48.716;8.760;2023-06-22T00:40:26;7.78;;;7.07;;
20207;SDS011;10263;48.716;8.760;2023-06-22T00:42:53;7.55;;;6.40;;
20207;SDS011;10263;48.716;8.760;2023-06-22T00:45:20;6.60;;;5.93;;
20207;SDS011;10263;48.716;8.760;2023-06-22T00:47:49;7.15;;;6.55;;
20207;SDS011;10263;48.716;8.760;2023-06-22T00:50:20;7.50;;;6.80;;
20207;SDS011;10263;48.716;8.760;2023-06-22T00:52:49;11.35;;;6.60;;
20207;SDS011;10263;48.716;8.760;2023-06-22T00:55:18;6.75;;;5.97;;
20207;SDS011;10263;48.716;8.760;2023-06-22T00:57:46;7.35;;;5.88;;
20207;SDS011;10263;48.716;8.760;2023-06-22T01:00:14;8.55;;;6.28;;
20207;SDS011;10263;48.716;8.760;2023-06-22T01:02:42;8.32;;;6.32;;
20207;SDS011;10263;48.716;8.760;2023-06-22T01:05:11;8.25;;;6.25;;
20207;SDS011;10263;48.716;8.760;2023-06-22T01:07:42;7.80;;;6.05;;
20207;SDS011;10263;48.716;8.760;2023-06-22T01:10:21;6.80;;;6.10;;
20207;SDS011;10263;48.716;8.760;2023-06-22T01:12:56;9.15;;;6.57;;
20207;SDS011;10263;48.716;8.760;2023-06-22T01:15:30;7.03;;;6.40;;
20207;SDS011;10263;48.716;8.760;2023-06-22T01:18:01;7.55;;;6.82;;
20207;SDS011;10263;48.716;8.760;2023-06-22T01:20:30;8.18;;;6.28;;
20207;SDS011;10263;48.716;8.760;2023-06-22T01:23:05;8.77;;;6.55;;
20207;SDS011;10263;48.716;8.760;2023-06-22T01:25:40;7.53;;;6.70;;
20207;SDS011;10263;48.716;8.760;2023-06-22T01:28:17;9.30;;;6.28;;
20207;SDS011;10263;48.716;8.760;2023-06-22T01:30:51;7.47;;;6.07;;
20207;SDS011;10263;48.716;8.760;2023-06-22T01:33:28;7.03;;;6.40;;
20207;SDS011;10263;48.716;8.760;2023-06-22T01:35:57;8.05;;;6.65;;
20207;SDS011;10263;48.716;8.760;2023-06-22T01:38:24;8.40;;;7.30;;
20207;SDS011;10263;48.716;8.760;2023-06-22T01:40:52;6.78;;;6.05;;
20207;SDS011;10263;48.716;8.760;2023-06-22T01:43:19;8.13;;;6.63;;
20207;SDS011;10263;48.716;8.760;2023-06-22T01:45:48;7.40;;;6.70;;
20207;SDS011;10263;48.716;8.760;2023-06-22T01:48:16;7.72;;;6.97;;
20207;SDS011;10263;48.716;8.760;2023-06-22T01:50:43;7.55;;;6.85;;
20207;SDS011;10263;48.716;8.760;2023-06-22T01:53:11;8.88;;;7.97;;
20207;SDS011;10263;48.716;8.760;2023-06-22T01:55:38;7.30;;;6.60;;
20207;SDS011;10263;48.716;8.760;2023-06-22T01:58:05;7.40;;;6.63;;
20207;SDS011;10263;48.716;8.760;2023-06-22T02:00:33;7.60;;;6.90;;
20207;SDS011;10263;48.716;8.760;2023-06-22T02:03:05;7.07;;;6.35;;
20207;SDS011;10263;48.716;8.760;2023-06-22T02:05:39;7.07;;;6.45;;
20207;SDS011;10263;48.716;8.760;2023-06-22T02:08:22;7.60;;;6.90;;
20207;SDS011;10263;48.716;8.760;2023-06-22T02:10:51;8.13;;;7.22;;
20207;SDS011;10263;48.716;8.760;2023-06-22T02:13:20;7.57;;;6.78;;
20207;SDS011;10263;48.716;8.760;2023-06-22T02:15:47;7.72;;;6.93;;
20207;SDS011;10263;48.716;8.760;2023-06-22T02:18:14;7.43;;;6.80;;
20207;SDS011;10263;48.716;8.760;2023-06-22T02:20:43;8.52;;;6.80;;
20207;SDS011;10263;48.716;8.760;2023-06-22T02:23:10;8.43;;;6.57;;
20207;SDS011;10263;48.716;8.760;2023-06-22T02:25:36;6.60;;;5.93;;
20207;SDS011;10263;48.716;8.760;2023-06-22T02:28:03;7.15;;;6.28;;
20207;SDS011;10263;48.716;8.760;2023-06-22T02:30:30;6.47;;;5.88;;
20207;SDS011;10263;48.716;8.760;2023-06-22T02:32:58;7.53;;;6.13;;
20207;SDS011;10263;48.716;8.760;2023-06-22T02:35:25;6.90;;;6.20;;
20207;SDS011;10263;48.716;8.760;2023-06-22T02:37:57;10.80;;;6.25;;
20207;SDS011;10263;48.716;8.760;2023-06-22T02:40:25;7.95;;;6.55;;
20207;SDS011;10263;48.716;8.760;2023-06-22T02:42:55;7.20;;;6.50;;
20207;SDS011;10263;48.716;8.760;2023-06-22T02:45:23;7.05;;;6.35;;
20207;SDS011;10263;48.716;8.760;2023-06-22T02:47:50;8.32;;;6.60;;
20207;SDS011;10263;48.716;8.760;2023-06-22T02:50:17;8.18;;;6.47;;
20207;SDS011;10263;48.716;8.760;2023-06-22T02:52:44;7.38;;;6.60;;
20207;SDS011;10263;48.716;8.760;2023-06-22T02:55:13;8.35;;;6.55;;
20207;SDS011;10263;48.716;8.760;2023-06-22T02:57:42;9.32;;;6.95;;
20207;SDS011;10263;48.716;8.760;2023-06-22T03:00:09;7.20;;;6.53;;
20207;SDS011;10263;48.716;8.760;2023-06-22T03:02:43;7.47;;;6.63;;
20207;SDS011;10263;48.716;8.760;2023-06-22T03:05:10;7.20;;;6.57;;
20207;SDS011;10263;48.716;8.760;2023-06-22T03:07:39;7.70;;;6.72;;
20207;SDS011;10263;48.716;8.760;2023-06-22T03:10:07;6.72;;;6.13;;
20207;SDS011;10263;48.716;8.760;2023-06-22T03:12:35;7.15;;;6.45;;
20207;SDS011;10263;48.716;8.760;2023-06-22T03:15:03;7.40;;;6.20;;
20207;SDS011;10263;48.716;8.760;2023-06-22T03:17:31;6.72;;;6.13;;
20207;SDS011;10263;48.716;8.760;2023-06-22T03:19:58;7.07;;;6.40;;
20207;SDS011;10263;48.716;8.760;2023-06-22T03:22:25;7.65;;;6.85;;
20207;SDS011;10263;48.716;8.760;2023-06-22T03:24:52;7.75;;;6.43;;
20207;SDS011;10263;48.716;8.760;2023-06-22T03:27:19;9.10;;;7.65;;
20207;SDS011;10263;48.716;8.760;2023-06-22T03:29:47;7.10;;;6.40;;
20207;SDS011;10263;48.716;8.760;2023-06-22T03:32:14;8.70;;;6.32;;
20207;SDS011;10263;48.716;8.760;2023-06-22T03:34:41;9.27;;;6.95;;
20207;SDS011;10263;48.716;8.760;2023-06-22T03:37:12;7.53;;;6.82;;
20207;SDS011;10263;48.716;8.760;2023-06-22T03:39:40;6.97;;;6.38;;
20207;SDS011;10263;48.716;8.760;2023-06-22T03:42:07;8.63;;;7.10;;
20207;SDS011;10263;48.716;8.760;2023-06-22T03:44:34;6.93;;;6.22;;
20207;SDS011;10263;48.716;8.760;2023-06-22T03:47:03;6.97;;;6.25;;
20207;SDS011;10263;48.716;8.760;2023-06-22T03:49:32;8.45;;;6.65;;
20207;SDS011;10263;48.716;8.760;2023-06-22T03:51:59;6.82;;;6.13;;
20207;SDS011;10263;48.716;8.760;2023-06-22T03:54:27;7.90;;;6.68;;
20207;SDS011;10263;48.716;8.760;2023-06-22T03:56:54;8.48;;;6.72;;
20207;SDS011;10263;48.716;8.760;2023-06-22T03:59:22;7.78;;;7.03;;
20207;SDS011;10263;48.716;8.760;2023-06-22T04:01:49;7.57;;;6.55;;
20207;SDS011;10263;48.716;8.760;2023-06-22T04:04:17;6.30;;;5.70;;
20207;SDS011;10263;48.716;8.760;2023-06-22T04:06:44;8.43;;;6.90;;
20207;SDS011;10263;48.716;8.760;2023-06-22T04:09:11;8.90;;;7.28;;
20207;SDS011;10263;48.716;8.760;2023-06-22T04:11:37;7.68;;;6.45;;
20207;SDS011;10263;48.716;8.760;2023-06-22T04:14:04;6.90;;;6.30;;
20207;SDS011;10263;48.716;8.760;2023-06-22T04:16:31;7.28;;;6.57;;
20207;SDS011;10263;48.716;8.760;2023-06-22T04:18:58;7.20;;;6.45;;
20207;SDS011;10263;48.716;8.760;2023-06-22T04:21:26;7.63;;;6.93;;
20207;SDS011;10263;48.716;8.760;2023-06-22T04:23:52;7.53;;;6.82;;
20207;SDS011;10263;48.716;8.760;2023-06-22T04:26:20;8.02;;;7.22;;
20207;SDS011;10263;48.716;8.760;2023-06-22T04:28:47;7.75;;;6.50;;
20207;SDS011;10263;48.716;8.760;2023-06-22T04:31:16;8.98;;;6.93;;
20207;SDS011;10263;48.716;8.760;2023-06-22T04:33:44;7.85;;;6.38;;
20207;SDS011;10263;48.716;8.760;2023-06-22T04:36:11;7.75;;;6.85;;
20207;SDS011;10263;48.716;8.760;2023-06-22T04:38:39;10.75;;;6.70;;
20207;SDS011;10263;48.716;8.760;2023-06-22T04:41:07;11.43;;;6.82;;
20207;SDS011;10263;48.716;8.760;2023-06-22T04:43:39;7.13;;;6.47;;
20207;SDS011;10263;48.716;8.760;2023-06-22T04:46:06;9.00;;;6.85;;
20207;SDS011;10263;48.716;8.760;2023-06-22T04:48:33;10.25;;;7.25;;
20207;SDS011;10263;48.716;8.760;2023-06-22T04:50:59;7.57;;;6.78;;
20207;SDS011;10263;48.716;8.760;2023-06-22T04:53:28;8.25;;;7.40;;
20207;SDS011;10263;48.716;8.760;2023-06-22T04:55:57;9.77;;;7.18;;
20207;SDS011;10263;48.716;8.760;2023-06-22T04:58:23;8.02;;;7.18;;
20207;SDS011;10263;48.716;8.760;2023-06-22T05:00:52;7.78;;;6.97;;
20207;SDS011;10263;48.716;8.760;2023-06-22T05:03:22;8.05;;;7.25;;
20207;SDS011;10263;48.716;8.760;2023-06-22T05:05:51;9.38;;;7.97;;
20207;SDS011;10263;48.716;8.760;2023-06-22T05:08:18;7.85;;;7.07;;
20207;SDS011;10263;48.716;8.760;2023-06-22T05:10:45;8.55;;;7.53;;
20207;SDS011;10263;48.716;8.760;2023-06-22T05:13:13;8.20;;;7.22;;
20207;SDS011;10263;48.716;8.760;2023-06-22T05:15:40;9.32;;;8.32;;
20207;SDS011;10263;48.716;8.760;2023-06-22T05:18:07;11.52;;;8.57;;
20207;SDS011;10263;48.716;8.760;2023-06-22T05:20:34;8.30;;;7.55;;
20207;SDS011;10263;48.716;8.760;2023-06-22T05:23:01;7.80;;;7.10;;
20207;SDS011;10263;48.716;8.760;2023-06-22T05:25:27;7.93;;;7.13;;
20207;SDS011;10263;48.716;8.760;2023-06-22T05:27:57;8.65;;;7.82;;
20207;SDS011;10263;48.716;8.760;2023-06-22T05:30:25;8.10;;;7.30;;
20207;SDS011;10263;48.716;8.760;2023-06-22T05:32:53;7.45;;;6.75;;
20207;SDS011;10263;48.716;8.760;2023-06-22T05:35:20;8.20;;;7.40;;
20207;SDS011;10263;48.716;8.760;2023-06-22T05:37:46;8.38;;;7.60;;
20207;SDS011;10263;48.716;8.760;2023-06-22T05:40:14;8.80;;;7.95;;
20207;SDS011;10263;48.716;8.760;2023-06-22T05:42:40;8.70;;;7.68;;
20207;SDS011;10263;48.716;8.760;2023-06-22T05:45:07;8.15;;;7.38;;
20207;SDS011;10263;48.716;8.760;2023-06-22T05:47:36;10.52;;;7.68;;
20207;SDS011;10263;48.716;8.760;2023-06-22T05:50:03;9.25;;;7.57;;
20207;SDS011;10263;48.716;8.760;2023-06-22T05:52:33;8.70;;;7.82;;
20207;SDS011;10263;48.716;8.760;2023-06-22T05:55:01;8.50;;;7.80;;
20207;SDS011;10263;48.716;8.760;2023-06-22T05:57:28;9.40;;;7.80;;
20207;SDS011;10263;48.716;8.760;2023-06-22T05:59:55;9.68;;;8.35;;
20207;SDS011;10263;48.716;8.760;2023-06-22T06:02:21;8.00;;;7.30;;
20207;SDS011;10263;48.716;8.760;2023-06-22T06:04:50;8.80;;;7.72;;
20207;SDS011;10263;48.716;8.760;2023-06-22T06:07:17;9.43;;;8.10;;
20207;SDS011;10263;48.716;8.760;2023-06-22T06:09:44;7.70;;;7.00;;
20207;SDS011;10263;48.716;8.760;2023-06-22T06:12:11;10.10;;;7.93;;
20207;SDS011;10263;48.716;8.760;2023-06-22T06:14:38;7.57;;;6.78;;
20207;SDS011;10263;48.716;8.760;2023-06-22T06:17:05;8.30;;;7.05;;
20207;SDS011;10263;48.716;8.760;2023-06-22T06:19:31;8.05;;;6.55;;
20207;SDS011;10263;48.716;8.760;2023-06-22T06:21:59;8.18;;;6.47;;
20207;SDS011;10263;48.716;8.760;2023-06-22T06:24:26;7.63;;;6.85;;
20207;SDS011;10263;48.716;8.760;2023-06-22T06:26:53;7.60;;;6.80;;
20207;SDS011;10263;48.716;8.760;2023-06-22T06:29:20;7.82;;;7.07;;
20207;SDS011;10263;48.716;8.760;2023-06-22T06:31:48;7.43;;;6.72;;
20207;SDS011;10263;48.716;8.760;2023-06-22T06:34:15;9.43;;;7.40;;
20207;SDS011;10263;48.716;8.760;2023-06-22T06:36:42;9.63;;;6.47;;
20207;SDS011;10263;48.716;8.760;2023-06-22T06:39:10;8.23;;;6.72;;
20207;SDS011;10263;48.716;8.760;2023-06-22T06:41:37;6.68;;;5.97;;
20207;SDS011;10263;48.716;8.760;2023-06-22T06:44:13;7.38;;;5.95;;
20207;SDS011;10263;48.716;8.760;2023-06-22T06:46:40;5.43;;;4.70;;
20207;SDS011;10263;48.716;8.760;2023-06-22T06:49:07;5.97;;;4.63;;
20207;SDS011;10263;48.716;8.760;2023-06-22T06:51:34;6.65;;;4.82;;
20207;SDS011;10263;48.716;8.760;2023-06-22T06:54:01;7.18;;;5.03;;
20207;SDS011;10263;48.716;8.760;2023-06-22T06:56:30;4.28;;;3.88;;
20207;SDS011;10263;48.716;8.760;2023-06-22T06:58:58;10.05;;;5.05;;
20207;SDS011;10263;48.716;8.760;2023-06-22T07:01:25;5.53;;;4.53;;
20207;SDS011;10263;48.716;8.760;2023-06-22T07:03:51;6.07;;;4.10;;
20207;SDS011;10263;48.716;8.760;2023-06-22T07:06:18;7.15;;;4.15;;
20207;SDS011;10263;48.716;8.760;2023-06-22T07:08:45;6.38;;;4.25;;
20207;SDS011;10263;48.716;8.760;2023-06-22T07:11:12;7.45;;;4.03;;
20207;SDS011;10263;48.716;8.760;2023-06-22T07:13:40;6.30;;;3.28;;
20207;SDS011;10263;48.716;8.760;2023-06-22T07:16:06;4.63;;;3.85;;
20207;SDS011;10263;48.716;8.760;2023-06-22T07:18:33;4.22;;;3.33;;
20207;SDS011;10263;48.716;8.760;2023-06-22T07:21:00;5.18;;;3.97;;
20207;SDS011;10263;48.716;8.760;2023-06-22T07:23:28;4.95;;;3.63;;
20207;SDS011;10263;48.716;8.760;2023-06-22T07:25:55;6.13;;;3.58;;
20207;SDS011;10263;48.716;8.760;2023-06-22T07:28:22;4.57;;;3.53;;
20207;SDS011;10263;48.716;8.760;2023-06-22T07:30:50;5.50;;;3.60;;
20207;SDS011;10263;48.716;8.760;2023-06-22T07:33:17;5.53;;;4.57;;
20207;SDS011;10263;48.716;8.760;2023-06-22T07:35:44;4.68;;;3.65;;
20207;SDS011;10263;48.716;8.760;2023-06-22T07:38:12;5.10;;;3.72;;
20207;SDS011;10263;48.716;8.760;2023-06-22T07:40:39;5.60;;;3.83;;
20207;SDS011;10263;48.716;8.760;2023-06-22T07:43:07;8.40;;;4.65;;
20207;SDS011;10263;48.716;8.760;2023-06-22T07:45:34;5.25;;;3.75;;
20207;SDS011;10263;48.716;8.760;2023-06-22T07:48:02;7.25;;;4.30;;
20207;SDS011;10263;48.716;8.760;2023-06-22T07:50:29;6.28;;;3.90;;
20207;SDS011;10263;48.716;8.760;2023-06-22T07:52:56;8.10;;;4.43;;
20207;SDS011;10263;48.716;8.760;2023-06-22T07:55:23;7.63;;;4.28;;
20207;SDS011;10263;48.716;8.760;2023-06-22T07:57:50;4.78;;;3.92;;
20207;SDS011;10263;48.716;8.760;2023-06-22T08:00:17;8.48;;;4.28;;
20207;SDS011;10263;48.716;8.760;2023-06-22T08:02:45;5.30;;;3.63;;
20207;SDS011;10263;48.716;8.760;2023-06-22T08:05:14;5.72;;;4.18;;
20207;SDS011;10263;48.716;8.760;2023-06-22T08:07:42;7.00;;;4.15;;
20207;SDS011;10263;48.716;8.760;2023-06-22T08:10:10;6.80;;;4.40;;
20207;SDS011;10263;48.716;8.760;2023-06-22T08:12:37;5.97;;;4.03;;
20207;SDS011;10263;48.716;8.760;2023-06-22T08:15:05;5.28;;;4.28;;
20207;SDS011;10263;48.716;8.760;2023-06-22T08:17:34;6.38;;;4.38;;
20207;SDS011;10263;48.716;8.760;2023-06-22T08:20:02;6.45;;;4.40;;
20207;SDS011;10263;48.716;8.760;2023-06-22T08:22:35;6.00;;;4.35;;
20207;SDS011;10263;48.716;8.760;2023-06-22T08:25:02;6.22;;;4.20;;
20207;SDS011;10263;48.716;8.760;2023-06-22T08:27:30;8.00;;;4.78;;
20207;SDS011;10263;48.716;8.760;2023-06-22T08:29:58;7.30;;;4.30;;
20207;SDS011;10263;48.716;8.760;2023-06-22T08:32:25;7.25;;;4.20;;
20207;SDS011;10263;48.716;8.760;2023-06-22T08:34:52;8.27;;;4.80;;
20207;SDS011;10263;48.716;8.760;2023-06-22T08:37:19;6.40;;;4.15;;
20207;SDS011;10263;48.716;8.760;2023-06-22T08:39:47;9.10;;;4.70;;
20207;SDS011;10263;48.716;8.760;2023-06-22T08:42:14;5.15;;;3.95;;
20207;SDS011;10263;48.716;8.760;2023-06-22T08:44:40;7.13;;;4.75;;
20207;SDS011;10263;48.716;8.760;2023-06-22T08:47:07;5.72;;;4.22;;
20207;SDS011;10263;48.716;8.760;2023-06-22T08:49:34;6.90;;;4.07;;
20207;SDS011;10263;48.716;8.760;2023-06-22T08:52:01;8.50;;;4.80;;
20207;SDS011;10263;48.716;8.760;2023-06-22T08:54:27;6.25;;;3.88;;
20207;SDS011;10263;48.716;8.760;2023-06-22T08:56:55;7.82;;;4.47;;
20207;SDS011;10263;48.716;8.760;2023-06-22T08:59:22;8.15;;;4.20;;
20207;SDS011;10263;48.716;8.760;2023-06-22T09:01:49;5.07;;;4.28;;
20207;SDS011;10263;48.716;8.760;2023-06-22T09:04:16;6.43;;;4.38;;
20207;SDS011;10263;48.716;8.760;2023-06-22T09:06:42;7.50;;;4.88;;
20207;SDS011;10263;48.716;8.760;2023-06-22T09:09:12;6.18;;;4.35;;
20207;SDS011;10263;48.716;8.760;2023-06-22T09:11:38;8.15;;;4.22;;
20207;SDS011;10263;48.716;8.760;2023-06-22T09:14:06;5.22;;;4.05;;
20207;SDS011;10263;48.716;8.760;2023-06-22T09:16:33;7.85;;;4.63;;
20207;SDS011;10263;48.716;8.760;2023-06-22T09:19:00;8.48;;;4.30;;
20207;SDS011;10263;48.716;8.760;2023-06-22T09:21:27;6.25;;;3.83;;
20207;SDS011;10263;48.716;8.760;2023-06-22T09:23:54;6.07;;;4.50;;
20207;SDS011;10263;48.716;8.760;2023-06-22T09:26:20;7.05;;;4.22;;
20207;SDS011;10263;48.716;8.760;2023-06-22T09:28:48;5.57;;;4.07;;
20207;SDS011;10263;48.716;8.760;2023-06-22T09:31:17;4.85;;;4.15;;
20207;SDS011;10263;48.716;8.760;2023-06-22T09:33:50;5.97;;;4.40;;
20207;SDS011;10263;48.716;8.760;2023-06-22T09:36:17;6.43;;;4.15;;
20207;SDS011;10263;48.716;8.760;2023-06-22T09:38:44;6.70;;;4.55;;
20207;SDS011;10263;48.716;8.760;2023-06-22T09:41:11;5.90;;;4.38;;
20207;SDS011;10263;48.716;8.760;2023-06-22T09:43:38;6.05;;;4.05;;
20207;SDS011;10263;48.716;8.760;2023-06-22T09:46:04;9.48;;;3.88;;
20207;SDS011;10263;48.716;8.760;2023-06-22T09:48:33;8.95;;;3.97;;
20207;SDS011;10263;48.716;8.760;2023-06-22T09:51:00;6.38;;;4.07;;
20207;SDS011;10263;48.716;8.760;2023-06-22T09:53:27;9.13;;;4.18;;
20207;SDS011;10263;48.716;8.760;2023-06-22T09:55:54;6.95;;;4.70;;
20207;SDS011;10263;48.716;8.760;2023-06-22T09:58:20;7.75;;;4.50;;
20207;SDS011;10263;48.716;8.760;2023-06-22T10:00:47;9.82;;;4.15;;
20207;SDS011;10263;48.716;8.760;2023-06-22T10:03:14;7.53;;;4.43;;
20207;SDS011;10263;48.716;8.760;2023-06-22T10:05:42;5.93;;;3.70;;
20207;SDS011;10263;48.716;8.760;2023-06-22T10:08:09;7.45;;;4.75;;
20207;SDS011;10263;48.716;8.760;2023-06-22T10:10:36;4.93;;;4.05;;
20207;SDS011;10263;48.716;8.760;2023-06-22T10:13:07;6.70;;;3.72;;
20207;SDS011;10263;48.716;8.760;2023-06-22T10:15:35;6.80;;;4.28;;
20207;SDS011;10263;48.716;8.760;2023-06-22T10:18:02;5.43;;;4.07;;
20207;SDS011;10263;48.716;8.760;2023-06-22T10:20:29;7.13;;;4.38;;
20207;SDS011;10263;48.716;8.760;2023-06-22T10:22:57;7.30;;;4.00;;
20207;SDS011;10263;48.716;8.760;2023-06-22T10:25:24;7.75;;;4.05;;
20207;SDS011;10263;48.716;8.760;2023-06-22T10:27:51;9.40;;;4.60;;
20207;SDS011;10263;48.716;8.760;2023-06-22T10:30:17;6.40;;;4.38;;
20207;SDS011;10263;48.716;8.760;2023-06-22T10:32:44;6.60;;;4.40;;
20207;SDS011;10263;48.716;8.760;2023-06-22T10:35:11;7.53;;;4.30;;
20207;SDS011;10263;48.716;8.760;2023-06-22T10:37:41;6.45;;;4.35;;
20207;SDS011;10263;48.716;8.760;2023-06-22T10:40:10;7.35;;;4.32;;
20207;SDS011;10263;48.716;8.760;2023-06-22T10:42:38;10.15;;;5.05;;
20207;SDS011;10263;48.716;8.760;2023-06-22T10:45:05;7.43;;;4.65;;
20207;SDS011;10263;48.716;8.760;2023-06-22T10:47:33;7.22;;;4.10;;
20207;SDS011;10263;48.716;8.760;2023-06-22T10:49:59;5.13;;;4.10;;
20207;SDS011;10263;48.716;8.760;2023-06-22T10:52:27;6.38;;;4.20;;
20207;SDS011;10263;48.716;8.760;2023-06-22T10:54:53;9.35;;;4.60;;
20207;SDS011;10263;48.716;8.760;2023-06-22T10:57:21;9.50;;;4.32;;
20207;SDS011;10263;48.716;8.760;2023-06-22T10:59:48;7.28;;;4.22;;
20207;SDS011;10263;48.716;8.760;2023-06-22T11:02:15;7.72;;;4.40;;
20207;SDS011;10263;48.716;8.760;2023-06-22T11:04:42;8.65;;;4.53;;
20207;SDS011;10263;48.716;8.760;2023-06-22T11:07:09;6.03;;;4.70;;
20207;SDS011;10263;48.716;8.760;2023-06-22T11:09:36;5.80;;;4.55;;
20207;SDS011;10263;48.716;8.760;2023-06-22T11:12:05;8.75;;;4.68;;
20207;SDS011;10263;48.716;8.760;2023-06-22T11:14:34;5.63;;;4.20;;
20207;SDS011;10263;48.716;8.760;2023-06-22T11:17:00;9.40;;;4.32;;
20207;SDS011;10263;48.716;8.760;2023-06-22T11:19:27;9.38;;;4.13;;
20207;SDS011;10263;48.716;8.760;2023-06-22T11:21:54;9.63;;;4.15;;
20207;SDS011;10263;48.716;8.760;2023-06-22T11:24:21;8.52;;;4.60;;
20207;SDS011;10263;48.716;8.760;2023-06-22T11:26:48;6.38;;;4.07;;
20207;SDS011;10263;48.716;8.760;2023-06-22T11:29:14;9.15;;;4.32;;
20207;SDS011;10263;48.716;8.760;2023-06-22T11:31:43;8.98;;;4.68;;
20207;SDS011;10263;48.716;8.760;2023-06-22T11:34:09;9.27;;;4.82;;
20207;SDS011;10263;48.716;8.760;2023-06-22T11:36:36;7.97;;;4.72;;
20207;SDS011;10263;48.716;8.760;2023-06-22T11:39:03;9.25;;;4.88;;
20207;SDS011;10263;48.716;8.760;2023-06-22T11:41:31;7.60;;;4.45;;
20207;SDS011;10263;48.716;8.760;2023-06-22T11:43:57;10.02;;;4.75;;
20207;SDS011;10263;48.716;8.760;2023-06-22T11:46:24;6.97;;;4.68;;
20207;SDS011;10263;48.716;8.760;2023-06-22T11:48:52;7.95;;;4.60;;
20207;SDS011;10263;48.716;8.760;2023-06-22T11:51:19;12.77;;;4.10;;
20207;SDS011;10263;48.716;8.760;2023-06-22T11:53:46;8.48;;;4.45;;
20207;SDS011;10263;48.716;8.760;2023-06-22T11:56:12;8.00;;;4.78;;
20207;SDS011;10263;48.716;8.760;2023-06-22T11:58:39;8.00;;;4.63;;
20207;SDS011;10263;48.716;8.760;2023-06-22T12:01:06;7.00;;;4.78;;
20207;SDS011;10263;48.716;8.760;2023-06-22T12:03:32;8.23;;;4.53;;
20207;SDS011;10263;48.716;8.760;2023-06-22T12:06:01;7.35;;;5.00;;
20207;SDS011;10263;48.716;8.760;2023-06-22T12:08:27;9.80;;;4.95;;
20207;SDS011;10263;48.716;8.760;2023-06-22T12:10:54;8.45;;;4.45;;
20207;SDS011;10263;48.716;8.760;2023-06-22T12:13:21;9.73;;;4.32;;
20207;SDS011;10263;48.716;8.760;2023-06-22T12:15:48;11.13;;;4.70;;
20207;SDS011;10263;48.716;8.760;2023-06-22T12:18:16;7.30;;;4.50;;
20207;SDS011;10263;48.716;8.760;2023-06-22T12:20:45;6.50;;;4.15;;
20207;SDS011;10263;48.716;8.760;2023-06-22T12:23:14;11.02;;;4.75;;
20207;SDS011;10263;48.716;8.760;2023-06-22T12:25:41;8.18;;;4.55;;
20207;SDS011;10263;48.716;8.760;2023-06-22T12:28:08;6.05;;;4.13;;
20207;SDS011;10263;48.716;8.760;2023-06-22T12:30:34;8.18;;;4.68;;
20207;SDS011;10263;48.716;8.760;2023-06-22T12:33:01;9.50;;;4.55;;
20207;SDS011;10263;48.716;8.760;2023-06-22T12:35:28;10.73;;;5.03;;
20207;SDS011;10263;48.716;8.760;2023-06-22T12:37:54;8.60;;;4.90;;
20207;SDS011;10263;48.716;8.760;2023-06-22T12:40:23;7.20;;;4.68;;
20207;SDS011;10263;48.716;8.760;2023-06-22T12:42:50;8.75;;;4.47;;
20207;SDS011;10263;48.716;8.760;2023-06-22T12:45:17;9.25;;;4.28;;
20207;SDS011;10263;48.716;8.760;2023-06-22T12:47:44;9.23;;;4.65;;
20207;SDS011;10263;48.716;8.760;2023-06-22T12:50:11;7.22;;;4.47;;
20207;SDS011;10263;48.716;8.760;2023-06-22T12:52:38;8.20;;;4.40;;
20207;SDS011;10263;48.716;8.760;2023-06-22T12:55:06;5.95;;;4.60;;
20207;SDS011;10263;48.716;8.760;2023-06-22T12:57:35;9.20;;;4.80;;
20207;SDS011;10263;48.716;8.760;2023-06-22T13:00:01;8.07;;;4.63;;
20207;SDS011;10263;48.716;8.760;2023-06-22T13:02:30;6.95;;;4.03;;
20207;SDS011;10263;48.716;8.760;2023-06-22T13:04:57;7.72;;;5.00;;
20207;SDS011;10263;48.716;8.760;2023-06-22T13:07:23;9.77;;;4.55;;
20207;SDS011;10263;48.716;8.760;2023-06-22T13:09:50;7.93;;;4.45;;
20207;SDS011;10263;48.716;8.760;2023-06-22T13:12:17;9.85;;;4.70;;
20207;SDS011;10263;48.716;8.760;2023-06-22T13:14:46;9.73;;;4.75;;
20207;SDS011;10263;48.716;8.760;2023-06-22T13:17:13;7.47;;;4.18;;
20207;SDS011;10263;48.716;8.760;2023-06-22T13:19:40;8.43;;;5.07;;
20207;SDS011;10263;48.716;8.760;2023-06-22T13:22:09;9.32;;;4.93;;
20207;SDS011;10263;48.716;8.760;2023-06-22T13:24:53;13.05;;;4.70;;
20207;SDS011;10263;48.716;8.760;2023-06-22T13:27:19;10.68;;;4.38;;
20207;SDS011;10263;48.716;8.760;2023-06-22T13:29:47;12.05;;;5.53;;
20207;SDS011;10263;48.716;8.760;2023-06-22T13:32:14;9.20;;;4.30;;
20207;SDS011;10263;48.716;8.760;2023-06-22T13:34:41;6.40;;;4.78;;
20207;SDS011;10263;48.716;8.760;2023-06-22T13:37:08;8.75;;;4.95;;
20207;SDS011;10263;48.716;8.760;2023-06-22T13:39:35;10.23;;;4.97;;
20207;SDS011;10263;48.716;8.760;2023-06-22T13:42:02;7.97;;;4.88;;
20207;SDS011;10263;48.716;8.760;2023-06-22T13:44:29;8.80;;;4.88;;
20207;SDS011;10263;48.716;8.760;2023-06-22T13:46:57;6.60;;;4.38;;
20207;SDS011;10263;48.716;8.760;2023-06-22T13:49:24;10.68;;;4.22;;
20207;SDS011;10263;48.716;8.760;2023-06-22T13:51:50;7.18;;;4.20;;
20207;SDS011;10263;48.716;8.760;2023-06-22T13:54:17;5.25;;;3.40;;
20207;SDS011;10263;48.716;8.760;2023-06-22T13:56:44;11.32;;;4.05;;
20207;SDS011;10263;48.716;8.760;2023-06-22T13:59:11;6.13;;;3.10;;
20207;SDS011;10263;48.716;8.760;2023-06-22T14:01:38;9.80;;;3.47;;
20207;SDS011;10263;48.716;8.760;2023-06-22T14:04:07;7.10;;;2.75;;
20207;SDS011;10263;48.716;8.760;2023-06-22T14:06:34;5.97;;;3.20;;
20207;SDS011;10263;48.716;8.760;2023-06-22T14:09:01;8.52;;;3.13;;
20207;SDS011;10263;48.716;8.760;2023-06-22T14:11:27;5.15;;;2.80;;
20207;SDS011;10263;48.716;8.760;2023-06-22T14:13:54;7.13;;;2.67;;
20207;SDS011;10263;48.716;8.760;2023-06-22T14:16:21;7.32;;;3.35;;
20207;SDS011;10263;48.716;8.760;2023-06-22T14:18:48;6.82;;;2.85;;
20207;SDS011;10263;48.716;8.760;2023-06-22T14:21:16;6.18;;;3.17;;
20207;SDS011;10263;48.716;8.760;2023-06-22T14:23:44;7.30;;;3.08;;
20207;SDS011;10263;48.716;8.760;2023-06-22T14:26:14;6.50;;;2.90;;
20207;SDS011;10263;48.716;8.760;2023-06-22T14:28:42;9.65;;;3.10;;
20207;SDS011;10263;48.716;8.760;2023-06-22T14:31:12;8.57;;;3.22;;
20207;SDS011;10263;48.716;8.760;2023-06-22T14:33:39;6.78;;;3.33;;
20207;SDS011;10263;48.716;8.760;2023-06-22T14:36:06;7.00;;;3.13;;
20207;SDS011;10263;48.716;8.760;2023-06-22T14:38:34;8.13;;;3.35;;
20207;SDS011;10263;48.716;8.760;2023-06-22T14:41:01;7.57;;;3.28;;
20207;SDS011;10263;48.716;8.760;2023-06-22T14:43:28;7.50;;;2.83;;
20207;SDS011;10263;48.716;8.760;2023-06-22T14:45:54;9.48;;;3.05;;
20207;SDS011;10263;48.716;8.760;2023-06-22T14:48:21;11.13;;;3.55;;
20207;SDS011;10263;48.716;8.760;2023-06-22T14:50:48;8.15;;;3.22;;